createdAt,value
2018-08-23T05:41:13.915Z,47.90
2018-08-23T05:43:43.687Z,44.83
2018-08-23T05:46:12.438Z,45.47
2018-08-23T07:47:57.513Z,25.45
2018-08-23T08:17:46.298Z,16.75
2018-08-23T09:45:07.579Z,9.13
2018-08-23T09:47:36.203Z,9.60
2018-08-23T09:50:05.835Z,9.73
2018-08-23T09:52:46.750Z,12.70
2018-08-23T09:55:16.766Z,10.93
2018-08-23T09:57:45.995Z,11.17
2018-08-23T10:02:57.790Z,11.70
2018-08-23T10:05:31.858Z,8.40
2018-08-23T10:08:05.808Z,8.57
2018-08-23T10:10:39.651Z,7.93
2018-08-23T16:58:42.047Z,5.10
2018-08-23T17:03:38.899Z,4.80
2018-08-23T17:06:12.954Z,5.43
2018-08-23T17:08:41.634Z,6.23
2018-08-23T17:13:51.416Z,5.33
2018-08-23T17:16:25.536Z,5.27
2018-08-23T17:18:54.591Z,4.93
2018-08-23T17:21:24.822Z,9.27
2018-08-23T17:24:00.943Z,6.30
2018-08-23T17:26:32.257Z,6.53
2018-08-23T17:29:01.114Z,6.57
2018-08-23T17:31:30.029Z,4.80
2018-08-23T17:33:58.784Z,5.23
2018-08-23T17:36:27.779Z,5.83
2018-08-23T17:38:57.756Z,5.47
2018-08-23T17:41:27.291Z,4.60
2018-08-23T18:31:29.555Z,5.67
2018-08-23T18:34:13.074Z,9.30
2018-08-23T19:05:07.878Z,3.77
2018-08-23T19:13:41.989Z,3.80
2018-08-23T19:23:40.024Z,2.90
2018-08-23T19:26:08.815Z,2.63
2018-08-23T19:28:37.454Z,3.10
2018-08-23T19:31:06.108Z,3.20
2018-08-23T19:33:34.831Z,2.60
2018-08-23T19:36:03.483Z,2.93
2018-08-23T20:05:45.390Z,3.30
2018-08-23T20:08:14.244Z,3.30
2018-08-23T20:10:42.949Z,3.33
2018-08-23T20:13:11.835Z,3.60
2018-08-23T20:15:40.531Z,3.70
2018-08-23T20:18:09.187Z,3.87
2018-08-23T20:20:37.844Z,3.93
2018-08-23T20:23:06.521Z,3.90
2018-08-23T20:25:35.154Z,3.70
2018-08-23T20:28:03.889Z,4.07
2018-08-23T20:30:32.585Z,3.80
2018-08-23T20:33:01.279Z,4.30
2018-08-23T20:35:30.078Z,3.60
2018-08-23T20:37:58.831Z,3.20
